createdAt,value
2022-11-24T00:01:52.780Z,50.50
2022-11-24T00:04:22.013Z,48.13
2022-11-24T00:06:50.846Z,46.30
2022-11-24T00:09:20.413Z,55.67
2022-11-24T00:11:51.212Z,48.17
2022-11-24T00:14:21.250Z,50.37
2022-11-24T00:16:50.612Z,52.33
2022-11-24T00:19:20.104Z,47.20
2022-11-24T00:21:49.268Z,47.13
2022-11-24T00:24:18.805Z,45.77
2022-11-24T00:26:47.869Z,46.17
2022-11-24T00:29:18.795Z,53.43
2022-11-24T00:31:47.995Z,39.77
2022-11-24T00:34:17.420Z,47.97
2022-11-24T00:36:46.499Z,51.27
2022-11-24T00:39:17.558Z,43.93
2022-11-24T00:41:46.956Z,45.20
2022-11-24T00:44:17.895Z,49.60
2022-11-24T00:46:47.557Z,42.90
2022-11-24T00:49:17.143Z,54.07
2022-11-24T00:51:46.611Z,39.10
2022-11-24T00:54:15.916Z,42.17
2022-11-24T00:56:45.014Z,51.47
2022-11-24T00:59:14.516Z,46.40
2022-11-24T01:01:44.909Z,48.70
2022-11-24T01:04:14.760Z,58.83
2022-11-24T01:06:43.750Z,64.83
2022-11-24T01:09:13.174Z,53.77
2022-11-24T01:12:00.302Z,47.93
2022-11-24T01:14:30.109Z,47.00
2022-11-24T01:17:00.805Z,48.93
2022-11-24T01:19:30.033Z,52.63
2022-11-24T01:21:58.819Z,64.83
2022-11-24T01:24:27.972Z,56.57
2022-11-24T01:26:56.830Z,54.77
2022-11-24T01:29:26.232Z,51.27
2022-11-24T01:31:55.068Z,47.90
2022-11-24T01:34:26.048Z,55.83
2022-11-24T01:36:57.134Z,53.87
2022-11-24T01:39:26.372Z,54.37
2022-11-24T01:41:55.227Z,50.37
2022-11-24T01:44:27.026Z,49.63
2022-11-24T01:47:00.477Z,44.03
2022-11-24T01:49:39.247Z,47.23
2022-11-24T01:52:13.520Z,49.30
2022-11-24T01:54:47.629Z,46.93
2022-11-24T01:57:21.646Z,46.97
2022-11-24T01:59:54.110Z,42.33
2022-11-24T02:02:23.476Z,49.77
2022-11-24T02:04:54.410Z,39.87
2022-11-24T02:07:23.459Z,44.27
2022-11-24T02:09:57.259Z,44.87
2022-11-24T02:12:28.566Z,54.30
2022-11-24T02:14:59.354Z,43.73
2022-11-24T02:17:28.374Z,50.73
2022-11-24T02:20:02.170Z,48.87
2022-11-24T02:22:42.012Z,44.70
2022-11-24T02:25:22.497Z,49.50
2022-11-24T02:27:54.336Z,39.20
2022-11-24T02:30:24.031Z,49.20
2022-11-24T02:32:53.942Z,54.87
2022-11-24T02:35:23.233Z,46.40
2022-11-24T02:37:52.142Z,42.23
2022-11-24T02:40:25.868Z,50.47
2022-11-24T02:42:59.934Z,53.73
2022-11-24T02:45:31.616Z,52.57
2022-11-24T02:48:00.536Z,44.50
2022-11-24T02:50:29.973Z,53.37
2022-11-24T02:52:58.920Z,51.07
2022-11-24T02:55:28.240Z,49.50
2022-11-24T02:57:58.428Z,46.30
2022-11-24T03:00:27.899Z,55.47
2022-11-24T03:02:57.088Z,64.50
2022-11-24T03:05:27.539Z,44.97
2022-11-24T03:07:56.607Z,56.07
2022-11-24T03:10:26.028Z,47.37
2022-11-24T03:12:55.601Z,52.17
2022-11-24T03:15:26.429Z,55.87
2022-11-24T03:17:57.210Z,52.07
2022-11-24T03:20:26.740Z,57.57
2022-11-24T03:22:55.719Z,53.43
2022-11-24T03:25:25.599Z,51.63
2022-11-24T03:27:54.785Z,57.40
2022-11-24T03:30:25.586Z,53.47
2022-11-24T03:32:55.186Z,56.53
2022-11-24T03:35:24.906Z,48.00
2022-11-24T03:37:53.978Z,47.50
2022-11-24T03:40:23.181Z,51.63
2022-11-24T03:42:52.104Z,43.40
2022-11-24T03:48:12.208Z,49.73
2022-11-24T03:50:41.667Z,46.60
2022-11-24T03:53:10.976Z,60.53
2022-11-24T03:55:40.297Z,52.97
2022-11-24T03:58:09.323Z,54.03
2022-11-24T04:00:38.563Z,57.73
2022-11-24T04:03:07.755Z,54.83
2022-11-24T04:05:38.471Z,62.93
2022-11-24T04:08:07.879Z,57.07
2022-11-24T04:10:38.833Z,48.77
2022-11-24T04:13:13.952Z,45.37
2022-11-24T04:15:44.577Z,47.40
2022-11-24T04:18:14.790Z,44.50
2022-11-24T04:20:45.449Z,45.13
2022-11-24T04:23:14.418Z,46.40
2022-11-24T04:25:43.860Z,42.67
2022-11-24T04:28:13.061Z,55.23
2022-11-24T04:30:45.244Z,40.03
2022-11-24T04:33:14.636Z,45.97
2022-11-24T04:35:45.345Z,40.30
2022-11-24T04:39:23.084Z,36.73
2022-11-24T04:41:04.861Z,50.77
2022-11-24T04:43:39.135Z,45.67
2022-11-24T04:46:12.780Z,39.83
2022-11-24T04:48:41.775Z,45.17
2022-11-24T04:51:14.847Z,47.00
2022-11-24T04:53:44.168Z,41.43
2022-11-24T04:56:13.569Z,48.03
2022-11-24T04:58:42.454Z,41.27
2022-11-24T05:01:11.777Z,48.43
2022-11-24T05:03:41.165Z,57.93
2022-11-24T05:06:12.234Z,75.07
2022-11-24T05:08:41.174Z,70.07
2022-11-24T05:11:10.609Z,65.77
2022-11-24T05:13:39.486Z,70.80
2022-11-24T05:16:09.280Z,77.17
2022-11-24T05:18:38.285Z,59.63
2022-11-24T05:21:07.972Z,69.40
2022-11-24T05:23:38.288Z,60.70
2022-11-24T05:26:08.236Z,56.07
2022-11-24T05:28:37.107Z,61.67
2022-11-24T05:31:06.616Z,54.60
2022-11-24T05:33:35.536Z,54.37
2022-11-24T05:36:06.749Z,57.20
2022-11-24T05:38:37.374Z,53.47
2022-11-24T05:41:07.836Z,69.67
2022-11-24T05:43:36.714Z,49.70
2022-11-24T05:46:05.822Z,54.87
2022-11-24T05:48:34.649Z,55.63
2022-11-24T05:51:09.029Z,44.13
2022-11-24T05:53:39.342Z,57.00
2022-11-24T05:56:09.057Z,68.47
2022-11-24T05:58:37.634Z,62.23
2022-11-24T06:01:07.982Z,47.87
2022-11-24T06:03:36.238Z,53.07
2022-11-24T06:06:05.067Z,56.13
2022-11-24T06:08:35.017Z,39.37
2022-11-24T06:11:17.379Z,57.03
2022-11-24T06:13:46.903Z,57.57
2022-11-24T06:16:16.295Z,59.70
2022-11-24T06:18:45.647Z,55.73
2022-11-24T06:21:14.642Z,46.80
2022-11-24T06:23:43.329Z,57.23
2022-11-24T06:26:13.456Z,55.57
2022-11-24T06:28:42.046Z,48.97
2022-11-24T06:31:11.290Z,59.43
2022-11-24T06:33:40.272Z,60.97
2022-11-24T06:36:13.361Z,54.47
2022-11-24T06:38:42.393Z,52.90
2022-11-24T06:41:15.893Z,56.00
2022-11-24T06:43:44.405Z,58.00
2022-11-24T06:46:14.308Z,46.27
2022-11-24T06:48:43.411Z,69.13
2022-11-24T06:51:14.226Z,52.83
2022-11-24T06:53:42.991Z,66.10
2022-11-24T06:56:16.810Z,46.97
2022-11-24T06:58:48.660Z,52.23
2022-11-24T07:01:22.297Z,58.87
2022-11-24T07:03:52.436Z,64.00
2022-11-24T07:06:23.985Z,58.00
2022-11-24T07:08:53.060Z,66.40
2022-11-24T07:11:24.472Z,71.27
2022-11-24T07:13:59.614Z,60.40
2022-11-24T07:16:30.129Z,60.80
2022-11-24T07:18:59.364Z,50.27
2022-11-24T07:21:29.614Z,69.40
2022-11-24T07:23:59.255Z,69.50
2022-11-24T07:26:28.708Z,68.13
2022-11-24T07:28:58.492Z,61.67
2022-11-24T07:31:27.364Z,68.63
2022-11-24T07:33:57.496Z,68.93
2022-11-24T07:36:26.320Z,64.27
2022-11-24T07:38:55.141Z,57.33
2022-11-24T07:41:23.936Z,81.90
2022-11-24T07:43:53.156Z,67.67
2022-11-24T07:46:23.429Z,60.03
2022-11-24T07:48:52.023Z,64.93
2022-11-24T07:51:21.219Z,70.30
2022-11-24T07:53:49.716Z,76.50
2022-11-24T07:56:18.548Z,81.77
2022-11-24T07:58:52.656Z,78.17
2022-11-24T08:01:23.979Z,69.83
2022-11-24T08:03:52.691Z,67.80
2022-11-24T08:06:25.444Z,80.83
2022-11-24T08:08:55.571Z,68.07
2022-11-24T08:11:25.397Z,82.37
2022-11-24T08:13:53.938Z,85.33
2022-11-24T08:16:24.050Z,66.57
2022-11-24T08:18:54.243Z,72.50
2022-11-24T08:21:23.943Z,90.03
2022-11-24T08:23:56.088Z,74.37
2022-11-24T08:26:25.676Z,84.53
2022-11-24T08:28:56.725Z,67.17
2022-11-24T08:31:33.327Z,63.70
2022-11-24T08:34:03.639Z,75.83
2022-11-24T08:36:34.897Z,69.73
2022-11-24T08:39:03.638Z,67.37
2022-11-24T08:41:33.786Z,67.10
2022-11-24T08:44:02.139Z,76.57
2022-11-24T08:46:32.521Z,72.63
2022-11-24T08:49:01.924Z,80.53
2022-11-24T08:51:30.922Z,71.53
2022-11-24T08:54:01.237Z,67.00
2022-11-24T08:56:31.922Z,72.77
2022-11-24T08:59:01.565Z,75.07
2022-11-24T09:01:31.894Z,71.13
2022-11-24T09:04:00.468Z,79.53
2022-11-24T09:06:31.704Z,60.40
2022-11-24T09:09:00.838Z,64.10
2022-11-24T09:11:30.892Z,80.63
2022-11-24T09:13:59.377Z,75.67
2022-11-24T09:16:30.103Z,76.50
2022-11-24T09:19:01.926Z,69.37
2022-11-24T09:21:34.356Z,88.73
2022-11-24T09:24:03.095Z,79.23
2022-11-24T09:26:34.014Z,89.60
2022-11-24T09:29:04.923Z,72.23
2022-11-24T09:31:36.230Z,71.43
2022-11-24T09:34:07.959Z,104.67
2022-11-24T09:36:37.005Z,94.57
2022-11-24T09:39:05.907Z,65.83
2022-11-24T09:41:42.886Z,79.60
2022-11-24T09:44:34.332Z,77.17
2022-11-24T09:47:11.274Z,85.10
2022-11-24T09:49:51.258Z,85.53
2022-11-24T09:52:39.935Z,92.77
2022-11-24T09:55:23.771Z,85.23
2022-11-24T09:58:02.189Z,83.63
2022-11-24T10:00:31.443Z,79.93
2022-11-24T10:03:00.238Z,68.27
2022-11-24T10:05:35.048Z,84.97
2022-11-24T10:08:19.323Z,78.83
2022-11-24T10:10:57.609Z,82.23
2022-11-24T10:13:50.934Z,76.10
2022-11-24T10:16:30.189Z,79.40
2022-11-24T10:19:04.799Z,90.00
2022-11-24T10:21:48.103Z,71.57
2022-11-24T10:24:56.633Z,74.80
2022-11-24T10:27:31.560Z,87.03
2022-11-24T10:30:02.509Z,82.50
2022-11-24T10:32:36.698Z,69.43
2022-11-24T10:35:16.201Z,69.37
2022-11-24T10:37:54.815Z,82.77
2022-11-24T10:40:56.113Z,68.97
2022-11-24T10:43:22.882Z,78.40
2022-11-24T10:45:51.810Z,64.73
2022-11-24T10:48:23.717Z,76.30
2022-11-24T10:50:55.369Z,92.43
2022-11-24T10:53:31.050Z,87.83
2022-11-24T10:56:02.273Z,89.07
2022-11-24T10:58:37.251Z,82.10
2022-11-24T11:01:28.932Z,77.37
2022-11-24T11:03:59.665Z,55.03
2022-11-24T11:06:29.529Z,82.17
2022-11-24T11:09:19.408Z,67.00
2022-11-24T11:11:49.094Z,81.53
2022-11-24T11:14:31.905Z,61.97
2022-11-24T11:17:00.663Z,69.27
2022-11-24T11:19:54.334Z,60.27
2022-11-24T11:22:28.197Z,69.40
2022-11-24T11:25:19.890Z,68.73
2022-11-24T11:27:48.907Z,66.93
2022-11-24T11:36:13.001Z,76.53
2022-11-24T11:38:42.905Z,75.57
2022-11-24T11:41:20.606Z,67.87
2022-11-24T11:43:55.707Z,59.60
2022-11-24T11:46:29.688Z,61.83
2022-11-24T11:48:58.695Z,62.40
2022-11-24T11:54:44.063Z,61.20
2022-11-24T11:57:26.470Z,55.63
2022-11-24T12:00:05.728Z,59.63
2022-11-24T12:02:58.113Z,55.90
2022-11-24T12:05:35.925Z,63.60
2022-11-24T12:08:21.388Z,48.60
2022-11-24T12:10:57.621Z,48.80
2022-11-24T12:13:46.317Z,67.03
2022-11-24T12:16:30.929Z,72.07
2022-11-24T12:19:15.858Z,54.83
2022-11-24T12:21:55.522Z,58.80
2022-11-24T12:24:31.650Z,70.77
2022-11-24T12:27:06.080Z,58.60
2022-11-24T12:30:12.460Z,59.03
2022-11-24T12:33:08.151Z,67.60
2022-11-24T12:35:39.849Z,60.47
2022-11-24T12:38:23.675Z,61.63
2022-11-24T12:41:39.590Z,58.40
2022-11-24T12:44:00.709Z,57.27
2022-11-24T12:46:49.276Z,59.07
2022-11-24T12:49:27.600Z,61.73
2022-11-24T12:52:02.420Z,53.80
2022-11-24T12:54:39.187Z,62.40
2022-11-24T12:57:14.286Z,61.67
2022-11-24T12:59:49.084Z,53.27
2022-11-24T13:02:29.086Z,62.10
2022-11-24T13:05:05.986Z,47.83
2022-11-24T13:07:43.829Z,48.20
2022-11-24T13:13:25.054Z,53.20
2022-11-24T13:19:14.885Z,48.30
2022-11-24T13:22:09.861Z,53.97
2022-11-24T13:24:40.243Z,51.87
2022-11-24T13:27:43.198Z,55.77
2022-11-24T13:30:47.562Z,51.00
2022-11-24T13:33:32.761Z,51.83
2022-11-24T13:36:45.992Z,49.00
2022-11-24T13:39:22.685Z,57.53
2022-11-24T13:42:42.235Z,55.93
2022-11-24T13:45:01.927Z,64.40
2022-11-24T13:47:36.069Z,47.77
2022-11-24T13:50:11.135Z,44.07
2022-11-24T13:52:44.744Z,45.53
2022-11-24T13:55:25.946Z,44.77
2022-11-24T13:57:58.697Z,47.33
2022-11-24T14:00:29.978Z,51.07
2022-11-24T14:03:02.679Z,48.30
2022-11-24T14:05:39.035Z,42.53
2022-11-24T14:08:15.129Z,50.67
2022-11-24T14:10:45.341Z,56.53
2022-11-24T14:13:34.747Z,48.23
2022-11-24T14:16:06.626Z,64.80
2022-11-24T14:18:36.353Z,49.07
2022-11-24T14:21:23.384Z,72.97
2022-11-24T14:23:54.596Z,67.13
2022-11-24T14:26:27.810Z,50.80
2022-11-24T14:29:06.701Z,51.57
2022-11-24T14:31:35.719Z,48.60
2022-11-24T14:34:19.429Z,61.53
2022-11-24T14:36:48.601Z,50.90
2022-11-24T14:39:19.923Z,52.37
2022-11-24T14:41:56.923Z,54.17
2022-11-24T14:44:27.750Z,55.67
2022-11-24T14:47:04.274Z,59.97
2022-11-24T14:49:35.028Z,64.60
2022-11-24T14:52:09.967Z,44.17
2022-11-24T14:54:51.613Z,75.37
2022-11-24T14:57:32.853Z,46.50
2022-11-24T15:00:19.511Z,51.47
2022-11-24T15:02:51.957Z,52.33
2022-11-24T15:05:22.973Z,56.23
2022-11-24T15:08:01.093Z,49.17
2022-11-24T15:10:35.474Z,62.30
2022-11-24T15:13:15.875Z,60.57
2022-11-24T15:15:51.770Z,51.07
2022-11-24T15:18:28.175Z,52.83
2022-11-24T15:20:56.963Z,50.20
2022-11-24T15:23:27.577Z,55.43
2022-11-24T15:25:56.989Z,54.53
2022-11-24T15:28:27.171Z,48.87
2022-11-24T15:30:57.409Z,63.17
2022-11-24T15:33:26.553Z,53.73
2022-11-24T15:35:55.637Z,80.70
2022-11-24T15:38:25.248Z,58.33
2022-11-24T15:40:55.362Z,75.50
2022-11-24T15:43:32.711Z,103.90
2022-11-24T15:46:02.473Z,101.60
2022-11-24T15:48:31.937Z,83.43
2022-11-24T15:51:02.753Z,99.43
2022-11-24T15:53:34.980Z,83.23
2022-11-24T15:56:06.578Z,84.23
2022-11-24T15:58:36.659Z,87.27
2022-11-24T16:01:05.286Z,101.37
2022-11-24T16:03:49.694Z,93.93
2022-11-24T16:06:25.090Z,99.67
2022-11-24T16:08:54.077Z,82.90
2022-11-24T16:11:22.626Z,90.13
2022-11-24T16:13:54.184Z,98.37
2022-11-24T16:16:24.957Z,89.97
2022-11-24T16:18:54.036Z,87.27
2022-11-24T16:21:23.383Z,73.37
2022-11-24T16:23:52.211Z,83.33
2022-11-24T16:26:20.723Z,90.53
2022-11-24T16:28:49.412Z,80.67
2022-11-24T16:31:19.921Z,73.23
2022-11-24T16:33:48.816Z,82.43
2022-11-24T16:36:17.610Z,84.90
2022-11-24T16:38:46.479Z,80.20
2022-11-24T16:41:16.012Z,71.90
2022-11-24T16:43:45.213Z,91.53
2022-11-24T16:46:21.256Z,78.90
2022-11-24T16:48:51.838Z,75.80
2022-11-24T16:51:22.643Z,90.33
2022-11-24T16:53:58.700Z,75.43
2022-11-24T16:56:27.694Z,97.93
2022-11-24T16:58:56.713Z,79.50
2022-11-24T17:01:27.176Z,79.53
2022-11-24T17:03:56.196Z,73.07
2022-11-24T17:06:24.766Z,79.83
2022-11-24T17:08:54.179Z,78.50
2022-11-24T17:11:24.837Z,67.70
2022-11-24T17:13:53.563Z,75.70
2022-11-24T17:16:24.108Z,80.73
2022-11-24T17:18:54.930Z,65.00
2022-11-24T17:21:25.443Z,76.50
2022-11-24T17:23:56.119Z,68.97
2022-11-24T17:26:25.128Z,70.47
2022-11-24T17:28:54.242Z,70.53
2022-11-24T17:31:27.414Z,80.40
2022-11-24T17:33:59.871Z,72.87
2022-11-24T17:36:29.498Z,63.67
2022-11-24T17:39:00.449Z,73.30
2022-11-24T17:41:29.104Z,71.53
2022-11-24T17:43:58.329Z,73.13
2022-11-24T17:46:28.266Z,73.37
2022-11-24T17:48:59.402Z,55.37
2022-11-24T17:51:28.683Z,65.83
2022-11-24T17:53:58.512Z,71.20
2022-11-24T17:56:28.692Z,84.23
2022-11-24T17:58:59.183Z,67.77
2022-11-24T18:01:30.347Z,53.00
2022-11-24T18:04:01.056Z,61.87
2022-11-24T18:06:29.892Z,79.67
2022-11-24T18:08:59.508Z,77.23
2022-11-24T18:11:32.077Z,73.20
2022-11-24T18:14:03.212Z,57.27
2022-11-24T18:16:34.312Z,75.07
2022-11-24T18:19:10.956Z,73.80
2022-11-24T18:21:40.984Z,73.27
2022-11-24T18:24:11.000Z,77.40
2022-11-24T18:26:40.277Z,74.50
2022-11-24T18:29:09.287Z,79.13
2022-11-24T18:31:38.873Z,75.43
2022-11-24T18:34:09.105Z,87.13
2022-11-24T18:36:38.020Z,87.67
2022-11-24T18:39:08.119Z,77.50
2022-11-24T18:41:37.442Z,85.80
2022-11-24T18:44:08.520Z,89.17
2022-11-24T18:46:37.961Z,87.97
2022-11-24T18:49:08.525Z,71.13
2022-11-24T18:51:37.210Z,80.77
2022-11-24T18:54:06.512Z,82.20
2022-11-24T18:56:35.283Z,72.63
2022-11-24T18:59:04.253Z,77.77
2022-11-24T19:01:32.959Z,77.83
2022-11-24T19:04:03.490Z,80.00
2022-11-24T19:06:34.872Z,81.40
2022-11-24T19:09:06.856Z,83.90
2022-11-24T19:11:38.127Z,62.10
2022-11-24T19:14:09.544Z,79.43
2022-11-24T19:16:38.633Z,69.03
2022-11-24T19:19:07.721Z,76.67
2022-11-24T19:21:39.134Z,72.87
2022-11-24T19:24:10.196Z,86.40
2022-11-24T19:26:39.537Z,67.20
2022-11-24T19:29:09.230Z,69.40
2022-11-24T19:31:39.448Z,64.40
2022-11-24T19:34:08.919Z,76.33
2022-11-24T19:36:40.559Z,93.83
2022-11-24T19:39:09.316Z,82.23
2022-11-24T19:41:37.928Z,70.90
2022-11-24T19:44:08.297Z,88.33
2022-11-24T19:46:36.987Z,74.80
2022-11-24T19:49:05.705Z,64.07
2022-11-24T19:51:36.248Z,72.63
2022-11-24T19:54:08.180Z,71.30
2022-11-24T19:56:38.155Z,80.07
2022-11-24T19:59:07.865Z,56.57
2022-11-24T20:01:38.533Z,68.37
2022-11-24T20:04:09.365Z,56.57
2022-11-24T20:06:40.369Z,74.13
2022-11-24T20:09:12.319Z,60.10
2022-11-24T20:11:41.736Z,89.60
2022-11-24T20:14:13.297Z,75.37
2022-11-24T20:16:42.468Z,75.60
2022-11-24T20:19:13.188Z,66.60
2022-11-24T20:21:46.022Z,83.93
2022-11-24T20:24:18.352Z,70.53
2022-11-24T20:26:49.016Z,76.40
2022-11-24T20:29:18.201Z,72.73
2022-11-24T20:31:49.206Z,76.40
2022-11-24T20:34:18.959Z,75.20
2022-11-24T20:36:48.507Z,76.97
2022-11-24T20:39:20.566Z,74.63
2022-11-24T20:41:49.547Z,68.43
2022-11-24T20:44:21.298Z,58.30
2022-11-24T20:46:50.453Z,59.70
2022-11-24T20:49:21.978Z,61.27
2022-11-24T20:51:54.388Z,57.07
2022-11-24T20:54:24.704Z,58.23
2022-11-24T20:56:52.973Z,77.57
2022-11-24T20:59:23.397Z,70.73
2022-11-24T21:01:55.154Z,77.87
2022-11-24T21:04:26.662Z,70.97
2022-11-24T21:06:55.613Z,66.43
2022-11-24T21:09:27.299Z,75.40
2022-11-24T21:11:55.842Z,74.90
2022-11-24T21:14:25.442Z,75.63
2022-11-24T21:16:53.775Z,61.20
2022-11-24T21:19:22.311Z,68.20
2022-11-24T21:21:50.638Z,52.43
2022-11-24T21:24:21.696Z,53.97
2022-11-24T21:26:52.806Z,56.67
2022-11-24T21:29:23.819Z,61.80
2022-11-24T21:31:52.856Z,63.33
2022-11-24T21:34:21.752Z,57.17
2022-11-24T21:36:50.118Z,64.83
2022-11-24T21:39:18.860Z,60.53
2022-11-24T21:41:47.679Z,74.47
2022-11-24T21:44:17.740Z,68.43
2022-11-24T21:46:52.699Z,66.27
2022-11-24T21:49:24.303Z,63.70
2022-11-24T21:51:55.706Z,72.60
2022-11-24T21:54:25.040Z,62.70
2022-11-24T21:56:55.467Z,61.23
2022-11-24T21:59:25.499Z,66.00
2022-11-24T22:01:54.100Z,68.43
2022-11-24T22:04:26.575Z,60.50
2022-11-24T22:06:54.949Z,56.17
2022-11-24T22:09:23.838Z,59.03
2022-11-24T22:11:52.672Z,54.03
2022-11-24T22:14:21.399Z,60.30
2022-11-24T22:16:51.130Z,60.50
2022-11-24T22:19:20.019Z,61.20
2022-11-24T22:21:48.406Z,46.67
2022-11-24T22:24:17.116Z,57.87
2022-11-24T22:26:45.441Z,56.57
2022-11-24T22:29:13.983Z,52.67
2022-11-24T22:31:42.521Z,50.87
2022-11-24T22:34:12.482Z,59.83
2022-11-24T22:36:40.688Z,46.90
2022-11-24T22:39:13.034Z,53.80
2022-11-24T22:41:41.301Z,48.77
2022-11-24T22:44:10.011Z,61.17
2022-11-24T22:46:38.549Z,78.83
2022-11-24T22:49:07.116Z,52.70
2022-11-24T22:51:40.026Z,57.97
2022-11-24T22:54:08.564Z,58.10
2022-11-24T22:56:36.826Z,56.23
2022-11-24T22:59:05.594Z,63.87
2022-11-24T23:01:34.728Z,60.30
2022-11-24T23:04:03.996Z,63.17
2022-11-24T23:06:34.172Z,58.77
2022-11-24T23:09:05.693Z,59.40
2022-11-24T23:11:38.379Z,56.50
2022-11-24T23:14:09.502Z,52.50
2022-11-24T23:16:38.321Z,62.50
2022-11-24T23:19:07.642Z,60.40
2022-11-24T23:21:39.076Z,66.77
2022-11-24T23:24:11.491Z,54.43
2022-11-24T23:26:41.259Z,59.33
2022-11-24T23:29:12.262Z,56.83
2022-11-24T23:31:41.226Z,65.40
2022-11-24T23:34:12.890Z,61.07
2022-11-24T23:36:41.575Z,48.30
2022-11-24T23:39:14.283Z,69.67
2022-11-24T23:41:42.979Z,57.60
2022-11-24T23:44:11.942Z,43.07
2022-11-24T23:46:40.320Z,63.60
2022-11-24T23:49:09.003Z,55.60
2022-11-24T23:51:41.567Z,61.53
2022-11-24T23:54:29.533Z,62.87
2022-11-24T23:56:57.776Z,49.33
2022-11-24T23:59:26.957Z,57.60
